^^
Datos históricos de la estación: Murcia-Puente Tocinos
Diario Informe para Enero 6, 2019 Unidades:  Ambas    Ingés   Métrico
Diario Semanal Mensual Anual
  Máxima: Mínima: Promedio:
Temperatura: 100.4 °F /  38 °C 76.8 °F /  24.9 °C 86.2 °F /  30.1 °C
Punto de rocio: 73.4 °F /  23 °C 61.2 °F /  16.2 °C 70.3 °F /  21.3 °C
Humedad: 88% 27.8% 64%
Velocidad viento: 12.5mph /  20.1km/h - 4.9mph /  7.9km/h
Racha viento: 20mph /  32.2km/h - -
Viento- - ESE
Presión: 29.9 in /  1011.7 hPa 29.7 in /  1006.0 hPa -
Precipitación: 0 in /  0.0 mm    
 
 
Tabla de datos para Enero 6, 2019
Hora Temperatura Punto de rocio Presión Viento Velocidad viento Racha viento Humedad Intensidad lluvia(por hora) Nubes
00:04 80.1 °F /  26.7 °C 72.5 °F /  22.5 °C 29.9in /  1011.7hPa NE 5.9mph /  9.5km/h 9mph /  14.5km/h 78% 0in /  0.0mm
00:09 79.9 °F /  26.6 °C 72.5 °F /  22.5 °C 29.9in /  1011.7hPa NE 5.8mph /  9.4km/h 9mph /  14.5km/h 78% 0in /  0.0mm
00:14 79.9 °F /  26.6 °C 72.7 °F /  22.6 °C 29.9in /  1011.7hPa NE 5.4mph /  8.7km/h 8.1mph /  13km/h 78.5% 0in /  0.0mm
00:19 79.7 °F /  26.5 °C 72.7 °F /  22.6 °C 29.9in /  1011.7hPa NNE 5.4mph /  8.7km/h 8mph /  12.9km/h 79% 0in /  0.0mm
00:24 79.5 °F /  26.4 °C 72.5 °F /  22.5 °C 29.9in /  1011.5hPa NNE 5.2mph /  8.4km/h 8.1mph /  13km/h 79.2% 0in /  0.0mm
00:29 79.5 °F /  26.4 °C 72.7 °F /  22.6 °C 29.9in /  1011.5hPa NNE 5mph /  8.1km/h 8mph /  12.9km/h 80% 0in /  0.0mm
00:34 79.3 °F /  26.3 °C 72.7 °F /  22.6 °C 29.9in /  1011.6hPa NE 4.3mph /  6.9km/h 8.5mph /  13.7km/h 80% 0in /  0.0mm
00:39 79.2 °F /  26.2 °C 72.7 °F /  22.6 °C 29.9in /  1011.6hPa NE 4.4mph /  7.1km/h 9mph /  14.5km/h 80.8% 0in /  0.0mm
00:44 79.2 °F /  26.2 °C 72.9 °F /  22.7 °C 29.9in /  1011.6hPa NNE 5.2mph /  8.4km/h 8mph /  12.9km/h 81% 0in /  0.0mm
00:49 79.2 °F /  26.2 °C 72.9 °F /  22.7 °C 29.9in /  1011.6hPa NE 5mph /  8.1km/h 8.1mph /  13km/h 81% 0in /  0.0mm
00:54 79 °F /  26.1 °C 72.7 °F /  22.6 °C 29.9in /  1011.6hPa NNE 4.3mph /  6.9km/h 9.7mph /  15.6km/h 81% 0in /  0.0mm
00:59 79 °F /  26.1 °C 72.9 °F /  22.7 °C 29.9in /  1011.6hPa NNE 4.5mph /  7.2km/h 10mph /  16.1km/h 81.8% 0in /  0.0mm
01:04 79 °F /  26.1 °C 73 °F /  22.8 °C 29.9in /  1011.6hPa NNE 5.2mph /  8.4km/h 8.5mph /  13.7km/h 82% 0in /  0.0mm
01:09 78.8 °F /  26 °C 72.9 °F /  22.7 °C 29.9in /  1011.5hPa NNE 5.1mph /  8.2km/h 9mph /  14.5km/h 82% 0in /  0.0mm
01:14 78.8 °F /  26 °C 72.9 °F /  22.7 °C 29.9in /  1011.5hPa NE 4.7mph /  7.6km/h 9.2mph /  14.8km/h 82% 0in /  0.0mm
01:19 78.8 °F /  26 °C 73 °F /  22.8 °C 29.9in /  1011.6hPa NE 4.7mph /  7.6km/h 9mph /  14.5km/h 82.6% 0in /  0.0mm
01:24 78.6 °F /  25.9 °C 73 °F /  22.8 °C 29.9in /  1011.6hPa NE 4.7mph /  7.6km/h 8.5mph /  13.7km/h 83% 0in /  0.0mm
01:29 78.6 °F /  25.9 °C 73 °F /  22.8 °C 29.9in /  1011.6hPa NE 4.7mph /  7.5km/h 9mph /  14.5km/h 83% 0in /  0.0mm
01:34 78.4 °F /  25.8 °C 72.9 °F /  22.7 °C 29.9in /  1011.6hPa NNE 4.3mph /  6.9km/h 7mph /  11.3km/h 83% 0in /  0.0mm
01:39 78.4 °F /  25.8 °C 73 °F /  22.8 °C 29.9in /  1011.6hPa NNE 4.1mph /  6.6km/h 7mph /  11.3km/h 83.6% 0in /  0.0mm
01:44 78.4 °F /  25.8 °C 73.2 °F /  22.9 °C 29.9in /  1011.6hPa NNE 3.1mph /  5km/h 7mph /  11.3km/h 84% 0in /  0.0mm
01:49 78.3 °F /  25.7 °C 73 °F /  22.8 °C 29.9in /  1011.6hPa NNE 3.3mph /  5.3km/h 7mph /  11.3km/h 84% 0in /  0.0mm
01:54 78.3 °F /  25.7 °C 73 °F /  22.8 °C 29.9in /  1011.5hPa NNE 4.3mph /  6.9km/h 7mph /  11.3km/h 84% 0in /  0.0mm
01:59 78.3 °F /  25.7 °C 73 °F /  22.8 °C 29.9in /  1011.5hPa NNE 4.2mph /  6.8km/h 7mph /  11.3km/h 84% 0in /  0.0mm
02:04 78.3 °F /  25.7 °C 73 °F /  22.8 °C 29.9in /  1011.5hPa NNE 4mph /  6.5km/h 7mph /  11.3km/h 84.3% 0in /  0.0mm
02:09 78.3 °F /  25.7 °C 73.4 °F /  23 °C 29.9in /  1011.5hPa NNE 3.9mph /  6.3km/h 6mph /  9.7km/h 85% 0in /  0.0mm
02:14 78.3 °F /  25.7 °C 73.2 °F /  22.9 °C 29.9in /  1011.5hPa NNE 3.6mph /  5.8km/h 6.2mph /  10km/h 84.9% 0in /  0.0mm
02:19 78.1 °F /  25.6 °C 73.2 °F /  22.9 °C 29.9in /  1011.5hPa NE 3.5mph /  5.7km/h 6.2mph /  10km/h 85% 0in /  0.0mm
02:24 78.1 °F /  25.6 °C 73.2 °F /  22.9 °C 29.9in /  1011.4hPa NE 3.1mph /  5km/h 6.2mph /  10km/h 85% 0in /  0.0mm
02:29 78.1 °F /  25.6 °C 73.2 °F /  22.9 °C 29.9in /  1011.4hPa NE 3.2mph /  5.2km/h 6mph /  9.7km/h 85% 0in /  0.0mm
02:34 78.1 °F /  25.6 °C 73.2 °F /  22.9 °C 29.9in /  1011.4hPa NNE 4mph /  6.4km/h 6.9mph /  11.1km/h 85% 0in /  0.0mm
02:39 78.1 °F /  25.6 °C 73 °F /  22.8 °C 29.9in /  1011.3hPa NNE 4mph /  6.5km/h 7.4mph /  11.9km/h 85% 0in /  0.0mm
02:44 77.9 °F /  25.5 °C 72.9 °F /  22.7 °C 29.9in /  1011.3hPa NNE 4.3mph /  6.9km/h 7mph /  11.3km/h 85% 0in /  0.0mm
02:49 77.7 °F /  25.4 °C 73 °F /  22.8 °C 29.9in /  1011.3hPa NNE 4.3mph /  6.9km/h 7mph /  11.3km/h 85.6% 0in /  0.0mm
02:54 77.7 °F /  25.4 °C 73.2 °F /  22.9 °C 29.9in /  1011.1hPa NNE 4mph /  6.5km/h 6mph /  9.7km/h 86% 0in /  0.0mm
02:59 77.7 °F /  25.4 °C 73.2 °F /  22.9 °C 29.9in /  1011.1hPa NE 3.8mph /  6.1km/h 6.9mph /  11.1km/h 86% 0in /  0.0mm
03:04 77.7 °F /  25.4 °C 73.2 °F /  22.9 °C 29.9in /  1011.3hPa NE 2.9mph /  4.7km/h 7mph /  11.3km/h 86% 0in /  0.0mm
03:09 77.7 °F /  25.4 °C 73.2 °F /  22.9 °C 29.9in /  1011.3hPa NE 2.7mph /  4.4km/h 5mph /  8km/h 86% 0in /  0.0mm
03:14 77.7 °F /  25.4 °C 73.2 °F /  22.9 °C 29.9in /  1011.3hPa North 2mph /  3.2km/h 5mph /  8km/h 86% 0in /  0.0mm
03:19 77.7 °F /  25.4 °C 73.2 °F /  22.9 °C 29.9in /  1011.3hPa NNE 2mph /  3.2km/h 5.8mph /  9.3km/h 86% 0in /  0.0mm
03:24 77.7 °F /  25.4 °C 73.2 °F /  22.9 °C 29.9in /  1011.1hPa North 2mph /  3.2km/h 6mph /  9.7km/h 86% 0in /  0.0mm
03:29 77.7 °F /  25.4 °C 73.2 °F /  22.9 °C 29.9in /  1011.1hPa NNE 1.9mph /  3.1km/h 5mph /  8km/h 86% 0in /  0.0mm
03:34 77.7 °F /  25.4 °C 73.2 °F /  22.9 °C 29.9in /  1011.2hPa NNE 1.4mph /  2.2km/h 5.2mph /  8.4km/h 86% 0in /  0.0mm
03:39 77.7 °F /  25.4 °C 73.2 °F /  22.9 °C 29.9in /  1011.2hPa NO 1.5mph /  2.4km/h 5mph /  8km/h 86% 0in /  0.0mm
03:44 77.7 °F /  25.4 °C 73.2 °F /  22.9 °C 29.9in /  1011.2hPa NO 2mph /  3.2km/h 5mph /  8km/h 86% 0in /  0.0mm
03:49 77.7 °F /  25.4 °C 73.2 °F /  22.9 °C 29.9in /  1011.2hPa NO 2mph /  3.2km/h 4mph /  6.4km/h 86% 0in /  0.0mm
03:54 77.5 °F /  25.3 °C 73 °F /  22.8 °C 29.9in /  1011.2hPa NO 1.8mph /  2.9km/h 3mph /  4.8km/h 86% 0in /  0.0mm
03:59 77.5 °F /  25.3 °C 73 °F /  22.8 °C 29.9in /  1011.2hPa NO 1.4mph /  2.3km/h 2.9mph /  4.7km/h 86% 0in /  0.0mm
04:04 77.5 °F /  25.3 °C 73 °F /  22.8 °C 29.9in /  1011.2hPa Calm   3mph /  4.8km/h 86% 0in /  0.0mm
04:09 77.5 °F /  25.3 °C 73.2 °F /  22.9 °C 29.9in /  1011.1hPa Calm   4.6mph /  7.4km/h 86.6% 0in /  0.0mm
04:14 77.5 °F /  25.3 °C 73.4 °F /  23 °C 29.9in /  1011.1hPa Calm   5mph /  8km/h 87% 0in /  0.0mm
04:19 77.5 °F /  25.3 °C 73.4 °F /  23 °C 29.9in /  1011.1hPa ONO 0.2mph /  0.3km/h 3.5mph /  5.6km/h 87% 0in /  0.0mm
04:24 77.5 °F /  25.3 °C 73.4 °F /  23 °C 29.9in /  1011.0hPa ONO 1.4mph /  2.2km/h 3mph /  4.8km/h 87% 0in /  0.0mm
04:29 77.5 °F /  25.3 °C 73.4 °F /  23 °C 29.9in /  1011.0hPa ONO 1.2mph /  1.9km/h   87% 0in /  0.0mm
04:34 77.5 °F /  25.3 °C 73.4 °F /  23 °C 29.9in /  1011.0hPa Calm     87% 0in /  0.0mm
04:39 77.5 °F /  25.3 °C 73.4 °F /  23 °C 29.9in /  1010.9hPa Calm   4.6mph /  7.4km/h 87% 0in /  0.0mm
04:44 77.5 °F /  25.3 °C 73.4 °F /  23 °C 29.9in /  1010.9hPa Calm   5mph /  8km/h 87% 0in /  0.0mm
04:49 77.5 °F /  25.3 °C 73.4 °F /  23 °C 29.9in /  1010.9hPa NE 0.2mph /  0.4km/h 3mph /  4.8km/h 87% 0in /  0.0mm
04:54 77.5 °F /  25.3 °C 73.4 °F /  23 °C 29.9in /  1010.9hPa NE 1.4mph /  2.2km/h 2mph /  3.2km/h 87% 0in /  0.0mm
04:59 77.5 °F /  25.3 °C 73.4 °F /  23 °C 29.9in /  1010.9hPa NE 1.1mph /  1.8km/h   87% 0in /  0.0mm
05:04 77.5 °F /  25.3 °C 73.4 °F /  23 °C 29.9in /  1010.9hPa Calm     87% 0in /  0.0mm
05:09 77.5 °F /  25.3 °C 73.4 °F /  23 °C 29.9in /  1010.8hPa Calm     87% 0in /  0.0mm
05:14 77.5 °F /  25.3 °C 73.4 °F /  23 °C 29.9in /  1010.8hPa Calm   4.6mph /  7.4km/h 87% 0in /  0.0mm
05:19 77.5 °F /  25.3 °C 73.4 °F /  23 °C 29.9in /  1010.8hPa NNO 0.2mph /  0.4km/h 5mph /  8km/h 87% 0in /  0.0mm
05:24 77.5 °F /  25.3 °C 73.4 °F /  23 °C 29.8in /  1010.6hPa NO 1.4mph /  2.2km/h 5.4mph /  8.7km/h 87% 0in /  0.0mm
05:29 77.5 °F /  25.3 °C 73.4 °F /  23 °C 29.8in /  1010.6hPa NO 1.5mph /  2.4km/h 6mph /  9.7km/h 87% 0in /  0.0mm
05:34 77.4 °F /  25.2 °C 73.2 °F /  22.9 °C 29.8in /  1010.6hPa ONO 2mph /  3.2km/h 6.2mph /  10km/h 87% 0in /  0.0mm
05:39 77.4 °F /  25.2 °C 73 °F /  22.8 °C 29.8in /  1010.4hPa NO 2.2mph /  3.5km/h 6mph /  9.7km/h 87% 0in /  0.0mm
05:44 77.2 °F /  25.1 °C 73 °F /  22.8 °C 29.8in /  1010.4hPa NO 3.1mph /  5km/h 5mph /  8km/h 87% 0in /  0.0mm
05:49 77.2 °F /  25.1 °C 73 °F /  22.8 °C 29.8in /  1010.6hPa NNO 2.9mph /  4.7km/h 5mph /  8km/h 87% 0in /  0.0mm
05:54 77.2 °F /  25.1 °C 73 °F /  22.8 °C 29.8in /  1010.6hPa NNO 1.8mph /  2.9km/h 4mph /  6.4km/h 87% 0in /  0.0mm
05:59 77.2 °F /  25.1 °C 73 °F /  22.8 °C 29.8in /  1010.6hPa NNO 1.4mph /  2.3km/h 2mph /  3.2km/h 87% 0in /  0.0mm
06:04 77.2 °F /  25.1 °C 72.9 °F /  22.7 °C 29.9in /  1010.8hPa Calm     87% 0in /  0.0mm
06:09 77.2 °F /  25.1 °C 73.2 °F /  22.9 °C 29.9in /  1010.8hPa Calm   2.4mph /  3.9km/h 88% 0in /  0.0mm
06:14 77 °F /  25 °C 72.9 °F /  22.7 °C 29.9in /  1010.8hPa Calm   5.8mph /  9.3km/h 87.2% 0in /  0.0mm
06:19 76.8 °F /  24.9 °C 72.7 °F /  22.6 °C 29.9in /  1010.8hPa SSE 0.5mph /  0.8km/h 6mph /  9.7km/h 87% 0in /  0.0mm
06:24 76.8 °F /  24.9 °C 73 °F /  22.8 °C 29.8in /  1010.7hPa SSE 3.1mph /  5km/h 5mph /  8km/h 87.9% 0in /  0.0mm
06:29 76.8 °F /  24.9 °C 73 °F /  22.8 °C 29.8in /  1010.7hPa Sur 3mph /  4.8km/h 5mph /  8km/h 88% 0in /  0.0mm
06:34 76.8 °F /  24.9 °C 73 °F /  22.8 °C 29.8in /  1010.7hPa Sur 2.4mph /  3.9km/h 5mph /  8km/h 88% 0in /  0.0mm
06:39 77 °F /  25 °C 73.2 °F /  22.9 °C 29.8in /  1010.5hPa Sur 2.2mph /  3.6km/h 4.6mph /  7.4km/h 88% 0in /  0.0mm
06:44 77.2 °F /  25.1 °C 73 °F /  22.8 °C 29.8in /  1010.5hPa SO 1.4mph /  2.2km/h 5mph /  8km/h 87.4% 0in /  0.0mm
06:49 77.2 °F /  25.1 °C 73 °F /  22.8 °C 29.8in /  1010.5hPa SO 1.6mph /  2.5km/h 5mph /  8km/h 87% 0in /  0.0mm
06:54 77.2 °F /  25.1 °C 73 °F /  22.8 °C 29.8in /  1010.5hPa SSO 2.4mph /  3.9km/h 5.8mph /  9.3km/h 87% 0in /  0.0mm
06:59 77.4 °F /  25.2 °C 72.9 °F /  22.7 °C 29.8in /  1010.5hPa Sur 2.6mph /  4.2km/h 6mph /  9.7km/h 86.3% 0in /  0.0mm
07:04 77.4 °F /  25.2 °C 72.9 °F /  22.7 °C 29.8in /  1010.5hPa SO 3.6mph /  5.8km/h 6mph /  9.7km/h 86% 0in /  0.0mm
07:09 77.4 °F /  25.2 °C 72.9 °F /  22.7 °C 29.8in /  1010.5hPa SO 3.6mph /  5.8km/h 6mph /  9.7km/h 86% 0in /  0.0mm
07:14 77.5 °F /  25.3 °C 72.9 °F /  22.7 °C 29.8in /  1010.5hPa SO 3.6mph /  5.8km/h 6mph /  9.7km/h 86% 0in /  0.0mm
07:19 77.5 °F /  25.3 °C 72.9 °F /  22.7 °C 29.8in /  1010.5hPa Oeste 3.5mph /  5.6km/h 6mph /  9.7km/h 85.7% 0in /  0.0mm
07:24 77.4 °F /  25.2 °C 72.7 °F /  22.6 °C 29.8in /  1010.5hPa ONO 2.9mph /  4.7km/h 5mph /  8km/h 85.6% 0in /  0.0mm
07:29 77.4 °F /  25.2 °C 72.9 °F /  22.7 °C 29.8in /  1010.5hPa ONO 2.7mph /  4.4km/h 5mph /  8km/h 86% 0in /  0.0mm
07:34 77.4 °F /  25.2 °C 72.9 °F /  22.7 °C 29.8in /  1010.7hPa ONO 1.8mph /  2.9km/h 5mph /  8km/h 86% 0in /  0.0mm
07:39 77.2 °F /  25.1 °C 72.7 °F /  22.6 °C 29.8in /  1010.7hPa ONO 1.7mph /  2.8km/h 4mph /  6.4km/h 86% 0in /  0.0mm
07:44 77.2 °F /  25.1 °C 72.7 °F /  22.6 °C 29.8in /  1010.7hPa ONO 1.4mph /  2.2km/h 4.6mph /  7.4km/h 86% 0in /  0.0mm
07:49 77.2 °F /  25.1 °C 72.7 °F /  22.6 °C 29.9in /  1010.8hPa ONO 1.5mph /  2.4km/h 5mph /  8km/h 86% 0in /  0.0mm
07:54 77.4 °F /  25.2 °C 72.7 °F /  22.6 °C 29.9in /  1010.8hPa Oeste 2mph /  3.2km/h 5.8mph /  9.3km/h 86% 0in /  0.0mm
07:59 77.4 °F /  25.2 °C 72.7 °F /  22.6 °C 29.9in /  1010.8hPa SSE 2.2mph /  3.6km/h 6mph /  9.7km/h 85.6% 0in /  0.0mm
08:04 77.4 °F /  25.2 °C 72.7 °F /  22.6 °C 29.9in /  1011.0hPa Sur 3.1mph /  5km/h 5.9mph /  9.5km/h 85% 0in /  0.0mm
08:09 77.5 °F /  25.3 °C 72.7 °F /  22.6 °C 29.9in /  1011.0hPa SSE 3.3mph /  5.3km/h 6.2mph /  10km/h 84.9% 0in /  0.0mm
08:14 77.7 °F /  25.4 °C 72.5 °F /  22.5 °C 29.9in /  1011.0hPa SSE 4.3mph /  6.9km/h 6mph /  9.7km/h 84% 0in /  0.0mm
08:19 77.7 °F /  25.4 °C 72.5 °F /  22.5 °C 29.9in /  1011.2hPa SSE 4.2mph /  6.7km/h 6mph /  9.7km/h 84% 0in /  0.0mm
08:24 78.1 °F /  25.6 °C 72.9 °F /  22.7 °C 29.9in /  1011.2hPa SSE 3.6mph /  5.8km/h 5mph /  8km/h 84% 0in /  0.0mm
08:29 78.3 °F /  25.7 °C 72.7 °F /  22.6 °C 29.9in /  1011.2hPa SSE 3.5mph /  5.6km/h 5.2mph /  8.4km/h 83.2% 0in /  0.0mm
08:34 78.3 °F /  25.7 °C 72.7 °F /  22.6 °C 29.9in /  1011.3hPa SE 2.9mph /  4.7km/h 5mph /  8km/h 83% 0in /  0.0mm
08:39 78.4 °F /  25.8 °C 72.9 °F /  22.7 °C 29.9in /  1011.3hPa ESE 2.9mph /  4.7km/h 5.8mph /  9.3km/h 83% 0in /  0.0mm
08:44 78.4 °F /  25.8 °C 72.9 °F /  22.7 °C 29.9in /  1011.3hPa Este 3.1mph /  5km/h 6mph /  9.7km/h 83% 0in /  0.0mm
08:49 78.4 °F /  25.8 °C 72.9 °F /  22.7 °C 29.9in /  1011.4hPa Este 3.1mph /  5km/h 5mph /  8km/h 83% 0in /  0.0mm
08:54 78.8 °F /  26 °C 73.2 °F /  22.9 °C 29.9in /  1011.4hPa Este 3.1mph /  5km/h 5mph /  8km/h 82.9% 0in /  0.0mm
08:59 79.3 °F /  26.3 °C 73.2 °F /  22.9 °C 29.9in /  1011.4hPa Este 2.4mph /  3.9km/h 3mph /  4.8km/h 81.4% 0in /  0.0mm
09:04 80.1 °F /  26.7 °C 73.2 °F /  22.9 °C 29.9in /  1011.4hPa Calm   1mph /  1.6km/h 80.1% 0in /  0.0mm
09:09 80.4 °F /  26.9 °C 73.2 °F /  22.9 °C 29.9in /  1011.4hPa Calm     78.4% 0in /  0.0mm
09:14 81.1 °F /  27.3 °C 73.2 °F /  22.9 °C 29.9in /  1011.4hPa Calm     77.3% 0in /  0.0mm
09:19 81.5 °F /  27.5 °C 73.4 °F /  23 °C 29.9in /  1011.6hPa Calm   3.5mph /  5.6km/h 76.4% 0in /  0.0mm
09:24 81.9 °F /  27.7 °C 73.2 °F /  22.9 °C 29.9in /  1011.6hPa Calm   4.7mph /  7.6km/h 75.1% 0in /  0.0mm
09:29 82 °F /  27.8 °C 73 °F /  22.8 °C 29.9in /  1011.6hPa NO 0.4mph /  0.7km/h 6.9mph /  11.1km/h 74.4% 0in /  0.0mm
09:34 81.9 °F /  27.7 °C 73 °F /  22.8 °C 29.9in /  1011.6hPa NNO 2.4mph /  3.9km/h 7mph /  11.3km/h 74.6% 0in /  0.0mm
09:39 81.9 °F /  27.7 °C 73.2 °F /  22.9 °C 29.9in /  1011.3hPa ENE 2.3mph /  3.7km/h 5mph /  8km/h 75% 0in /  0.0mm
09:44 82 °F /  27.8 °C 73.2 °F /  22.9 °C 29.9in /  1011.3hPa NNE 1.8mph /  2.9km/h 5mph /  8km/h 75% 0in /  0.0mm
09:49 82.4 °F /  28 °C 73.2 °F /  22.9 °C 29.9in /  1011.6hPa North 1.7mph /  2.8km/h 4.7mph /  7.6km/h 74.2% 0in /  0.0mm
09:54 82.6 °F /  28.1 °C 73.2 °F /  22.9 °C 29.9in /  1011.6hPa ONO 1.4mph /  2.2km/h 5mph /  8km/h 73.7% 0in /  0.0mm
09:59 82.2 °F /  27.9 °C 73.2 °F /  22.9 °C 29.9in /  1011.6hPa ONO 1.7mph /  2.7km/h 5mph /  8km/h 74% 0in /  0.0mm
10:04 82 °F /  27.8 °C 73.2 °F /  22.9 °C 29.9in /  1011.6hPa ONO 2.9mph /  4.6km/h 5mph /  8km/h 74.7% 0in /  0.0mm
10:09 82.2 °F /  27.9 °C 73.4 °F /  23 °C 29.9in /  1011.6hPa North 2.8mph /  4.5km/h 5.8mph /  9.3km/h 74.5% 0in /  0.0mm
10:14 82.6 °F /  28.1 °C 73.4 °F /  23 °C 29.9in /  1011.6hPa North 2.4mph /  3.9km/h 6.4mph /  10.3km/h 74.2% 0in /  0.0mm
10:19 82.6 °F /  28.1 °C 73 °F /  22.8 °C 29.9in /  1011.6hPa Oeste 2.4mph /  3.9km/h 7mph /  11.3km/h 73% 0in /  0.0mm
10:24 82.6 °F /  28.1 °C 73 °F /  22.8 °C 29.9in /  1011.5hPa OSO 2.4mph /  3.9km/h 7mph /  11.3km/h 73% 0in /  0.0mm
10:29 82.6 °F /  28.1 °C 73 °F /  22.8 °C 29.9in /  1011.5hPa ONO 2.6mph /  4.2km/h 9.2mph /  14.8km/h 73% 0in /  0.0mm
10:34 82.6 °F /  28.1 °C 73 °F /  22.8 °C 29.9in /  1011.5hPa NO 3.6mph /  5.8km/h 9.2mph /  14.8km/h 73% 0in /  0.0mm
10:39 82.6 °F /  28.1 °C 73 °F /  22.8 °C 29.9in /  1011.5hPa North 3.7mph /  5.9km/h 8mph /  12.9km/h 73.3% 0in /  0.0mm
10:44 82.9 °F /  28.3 °C 73.2 °F /  22.9 °C 29.9in /  1011.5hPa ESE 4mph /  6.4km/h 6mph /  9.7km/h 72.4% 0in /  0.0mm
10:49 83.7 °F /  28.7 °C 73.4 °F /  23 °C 29.9in /  1011.6hPa ESE 3.3mph /  5.3km/h 3.1mph /  5km/h 71.1% 0in /  0.0mm
10:54 84.2 °F /  29 °C 73 °F /  22.8 °C 29.9in /  1011.6hPa Calm   5.2mph /  8.4km/h 69.1% 0in /  0.0mm
10:59 84.6 °F /  29.2 °C 73 °F /  22.8 °C 29.9in /  1011.6hPa Este 0.7mph /  1.1km/h 5mph /  8km/h 68.6% 0in /  0.0mm
11:04 84.6 °F /  29.2 °C 72.9 °F /  22.7 °C 29.9in /  1011.6hPa ENE 3.1mph /  5km/h 6.9mph /  11.1km/h 68.2% 0in /  0.0mm
11:09 84.6 °F /  29.2 °C 72.7 °F /  22.6 °C 29.9in /  1011.5hPa NNE 3.3mph /  5.3km/h 7.4mph /  11.9km/h 67.8% 0in /  0.0mm
11:14 84.7 °F /  29.3 °C 72.9 °F /  22.7 °C 29.9in /  1011.4hPa ENE 4mph /  6.4km/h 7mph /  11.3km/h 68% 0in /  0.0mm
11:19 84.9 °F /  29.4 °C 72.7 °F /  22.6 °C 29.9in /  1011.5hPa NNE 3.9mph /  6.2km/h 6.9mph /  11.1km/h 66.8% 0in /  0.0mm
11:24 85.3 °F /  29.6 °C 72.3 °F /  22.4 °C 29.9in /  1011.5hPa ONO 3.1mph /  5km/h 7mph /  11.3km/h 65.3% 0in /  0.0mm
11:29 85.3 °F /  29.6 °C 71.8 °F /  22.1 °C 29.9in /  1011.5hPa Oeste 3.1mph /  5km/h 6mph /  9.7km/h 64.3% 0in /  0.0mm
11:34 85.5 °F /  29.7 °C 71.8 °F /  22.1 °C 29.9in /  1011.5hPa Oeste 3.1mph /  5km/h 6mph /  9.7km/h 63.8% 0in /  0.0mm
11:39 85.6 °F /  29.8 °C 71.6 °F /  22 °C 29.9in /  1011.2hPa SO 3mph /  4.8km/h 6.2mph /  10km/h 62.9% 0in /  0.0mm
11:44 86.2 °F /  30.1 °C 72 °F /  22.2 °C 29.9in /  1011.2hPa NNO 2.4mph /  3.9km/h 6.9mph /  11.1km/h 62.6% 0in /  0.0mm
11:49 86.5 °F /  30.3 °C 71.6 °F /  22 °C 29.9in /  1011.2hPa ONO 2.6mph /  4.2km/h 7mph /  11.3km/h 61.1% 0in /  0.0mm
11:54 86.7 °F /  30.4 °C 71.6 °F /  22 °C 29.9in /  1011.0hPa OSO 3.6mph /  5.8km/h 6mph /  9.7km/h 61% 0in /  0.0mm
11:59 86.9 °F /  30.5 °C 71.6 °F /  22 °C 29.9in /  1011.0hPa Oeste 3.5mph /  5.6km/h 6.2mph /  10km/h 60.6% 0in /  0.0mm
12:04 87.3 °F /  30.7 °C 71.6 °F /  22 °C 29.9in /  1011.0hPa NNE 2.9mph /  4.7km/h 6mph /  9.7km/h 59.6% 0in /  0.0mm
12:09 88 °F /  31.1 °C 71.2 °F /  21.8 °C 29.9in /  1011.0hPa ENE 2.9mph /  4.7km/h 5.8mph /  9.3km/h 57.8% 0in /  0.0mm
12:14 88.7 °F /  31.5 °C 71.1 °F /  21.7 °C 29.9in /  1011.0hPa Este 2.9mph /  4.7km/h 6.9mph /  11.1km/h 56% 0in /  0.0mm
12:19 89.2 °F /  31.8 °C 70.9 °F /  21.6 °C 29.9in /  1011.0hPa ONO 2.8mph /  4.5km/h 7mph /  11.3km/h 54.9% 0in /  0.0mm
12:24 89.2 °F /  31.8 °C 70.9 °F /  21.6 °C 29.9in /  1011.0hPa NNE 2.4mph /  3.9km/h 7mph /  11.3km/h 54.7% 0in /  0.0mm
12:29 89.6 °F /  32 °C 71.2 °F /  21.8 °C 29.9in /  1011.0hPa ENE 2.5mph /  4km/h 7mph /  11.3km/h 54.9% 0in /  0.0mm
12:34 90.1 °F /  32.3 °C 71.2 °F /  21.8 °C 29.9in /  1011.0hPa ENE 3.1mph /  5km/h 5.9mph /  9.5km/h 54.2% 0in /  0.0mm
12:39 90.7 °F /  32.6 °C 71.2 °F /  21.8 °C 29.9in /  1010.9hPa NNE 3mph /  4.9km/h 7.4mph /  11.9km/h 53.1% 0in /  0.0mm
12:44 90.7 °F /  32.6 °C 71.2 °F /  21.8 °C 29.9in /  1010.9hPa North 2.9mph /  4.7km/h 7mph /  11.3km/h 53% 0in /  0.0mm
12:49 91 °F /  32.8 °C 71.2 °F /  21.8 °C 29.9in /  1010.9hPa NNE 3mph /  4.9km/h 8.1mph /  13km/h 52.5% 0in /  0.0mm
12:54 91.2 °F /  32.9 °C 71.1 °F /  21.7 °C 29.8in /  1010.6hPa NE 4mph /  6.4km/h 8.1mph /  13km/h 52% 0in /  0.0mm
12:59 91.4 °F /  33 °C 71.1 °F /  21.7 °C 29.8in /  1010.6hPa NNE 4.1mph /  6.6km/h 8mph /  12.9km/h 51.6% 0in /  0.0mm
13:04 91.8 °F /  33.2 °C 71.2 °F /  21.8 °C 29.8in /  1010.6hPa NNE 4.3mph /  6.9km/h 7mph /  11.3km/h 51.2% 0in /  0.0mm
13:09 92.1 °F /  33.4 °C 71.1 °F /  21.7 °C 29.8in /  1010.5hPa North 4.2mph /  6.7km/h 8.1mph /  13km/h 50.3% 0in /  0.0mm
13:14 92.7 °F /  33.7 °C 71.1 °F /  21.7 °C 29.8in /  1010.5hPa NE 3.6mph /  5.8km/h 8mph /  12.9km/h 49.7% 0in /  0.0mm
13:19 93 °F /  33.9 °C 70.5 °F /  21.4 °C 29.8in /  1010.5hPa NNE 3.6mph /  5.8km/h 8.1mph /  13km/h 48.1% 0in /  0.0mm
13:24 93.4 °F /  34.1 °C 70.5 °F /  21.4 °C 29.8in /  1010.3hPa North 3.6mph /  5.8km/h 8mph /  12.9km/h 47.6% 0in /  0.0mm
13:29 93.6 °F /  34.2 °C 71.1 °F /  21.7 °C 29.8in /  1010.2hPa NE 3.7mph /  6km/h 9.2mph /  14.8km/h 48% 0in /  0.0mm
13:34 93.7 °F /  34.3 °C 70.2 °F /  21.2 °C 29.8in /  1010.2hPa NNE 4.3mph /  6.9km/h 10.4mph /  16.7km/h 46.4% 0in /  0.0mm
13:39 93.7 °F /  34.3 °C 70.5 °F /  21.4 °C 29.8in /  1010.0hPa ENE 4.3mph /  7km/h 10mph /  16.1km/h 46.9% 0in /  0.0mm
13:44 93.9 °F /  34.4 °C 70.2 °F /  21.2 °C 29.8in /  1009.9hPa NNE 4.7mph /  7.6km/h 9.2mph /  14.8km/h 46.4% 0in /  0.0mm
13:49 94.3 °F /  34.6 °C 69.3 °F /  20.7 °C 29.8in /  1009.9hPa ENE 4.7mph /  7.6km/h 9mph /  14.5km/h 44.4% 0in /  0.0mm
13:54 94.6 °F /  34.8 °C 69.8 °F /  21 °C 29.8in /  1009.7hPa NNE 4.7mph /  7.6km/h 10.4mph /  16.7km/h 44.6% 0in /  0.0mm
13:59 95.2 °F /  35.1 °C 69.3 °F /  20.7 °C 29.8in /  1009.7hPa NE 4.8mph /  7.7km/h 10.4mph /  16.7km/h 43.1% 0in /  0.0mm
14:04 95.4 °F /  35.2 °C 68.9 °F /  20.5 °C 29.8in /  1009.7hPa NNE 5.2mph /  8.4km/h 10mph /  16.1km/h 42.5% 0in /  0.0mm
14:09 95.5 °F /  35.3 °C 68.7 °F /  20.4 °C 29.8in /  1009.5hPa NE 5.2mph /  8.4km/h 10mph /  16.1km/h 41.9% 0in /  0.0mm
14:14 95.7 °F /  35.4 °C 68.2 °F /  20.1 °C 29.8in /  1009.5hPa NE 5.2mph /  8.4km/h 10mph /  16.1km/h 40.9% 0in /  0.0mm
14:19 96.1 °F /  35.6 °C 68 °F /  20 °C 29.8in /  1009.5hPa NNE 5.3mph /  8.6km/h 13mph /  20.9km/h 40.1% 0in /  0.0mm
14:24 96.4 °F /  35.8 °C 67.3 °F /  19.6 °C 29.8in /  1009.2hPa NE 5.9mph /  9.5km/h 13mph /  20.9km/h 38.8% 0in /  0.0mm
14:29 96.8 °F /  36 °C 66.2 °F /  19 °C 29.8in /  1009.2hPa NNE 5.8mph /  9.3km/h 12mph /  19.3km/h 37% 0in /  0.0mm
14:34 97.3 °F /  36.3 °C 66.4 °F /  19.1 °C 29.8in /  1009.2hPa NNE 5.2mph /  8.4km/h 12mph /  19.3km/h 36.7% 0in /  0.0mm
14:39 97.5 °F /  36.4 °C 66 °F /  18.9 °C 29.8in /  1009.0hPa NNE 5.2mph /  8.4km/h 12mph /  19.3km/h 36% 0in /  0.0mm
14:44 97.9 °F /  36.6 °C 66.2 °F /  19 °C 29.8in /  1009.0hPa ENE 5.4mph /  8.7km/h 11mph /  17.7km/h 35.8% 0in /  0.0mm
14:49 98.2 °F /  36.8 °C 66 °F /  18.9 °C 29.8in /  1009.0hPa NNE 5.2mph /  8.3km/h 11.2mph /  18km/h 35.2% 0in /  0.0mm
14:54 98.8 °F /  37.1 °C 65.5 °F /  18.6 °C 29.8in /  1008.8hPa NE 4mph /  6.5km/h 12mph /  19.3km/h 33.8% 0in /  0.0mm
14:59 99 °F /  37.2 °C 65.7 °F /  18.7 °C 29.8in /  1008.8hPa NE 4.4mph /  7.1km/h 10mph /  16.1km/h 33.9% 0in /  0.0mm
15:04 99.1 °F /  37.3 °C 65.5 °F /  18.6 °C 29.8in /  1008.8hPa NE 5.9mph /  9.5km/h 10.4mph /  16.7km/h 33.5% 0in /  0.0mm
15:09 99.1 °F /  37.3 °C 65.8 °F /  18.8 °C 29.8in /  1008.5hPa NE 5.8mph /  9.4km/h 11.8mph /  19km/h 34% 0in /  0.0mm
15:14 99.1 °F /  37.3 °C 66 °F /  18.9 °C 29.8in /  1008.5hPa NE 5.4mph /  8.7km/h 12mph /  19.3km/h 34.2% 0in /  0.0mm
15:19 99.1 °F /  37.3 °C 66.6 °F /  19.2 °C 29.8in /  1008.5hPa NE 5.4mph /  8.7km/h 11.8mph /  19km/h 34.8% 0in /  0.0mm
15:24 99.5 °F /  37.5 °C 66.2 °F /  19 °C 29.8in /  1008.5hPa ENE 5.4mph /  8.7km/h 12mph /  19.3km/h 34.1% 0in /  0.0mm
15:29 99.9 °F /  37.7 °C 65.8 °F /  18.8 °C 29.8in /  1008.5hPa ONO 5.5mph /  8.9km/h 15mph /  24.1km/h 33.4% 0in /  0.0mm
15:34 99.9 °F /  37.7 °C 65.7 °F /  18.7 °C 29.8in /  1008.5hPa SSE 6.2mph /  10km/h 15mph /  24.1km/h 33% 0in /  0.0mm
15:39 100.2 °F /  37.9 °C 65.7 °F /  18.7 °C 29.8in /  1008.2hPa SE 6.3mph /  10.2km/h 17.3mph /  27.8km/h 32.7% 0in /  0.0mm
15:44 100.2 °F /  37.9 °C 65.1 °F /  18.4 °C 29.8in /  1008.2hPa ESE 6.9mph /  11.1km/h 17mph /  27.4km/h 32% 0in /  0.0mm
15:49 99.9 °F /  37.7 °C 65.1 °F /  18.4 °C 29.8in /  1008.2hPa ESE 7.5mph /  12km/h 17.3mph /  27.8km/h 32.5% 0in /  0.0mm
15:54 99.7 °F /  37.6 °C 65.5 °F /  18.6 °C 29.8in /  1008.2hPa ESE 10.2mph /  16.4km/h 17mph /  27.4km/h 33% 0in /  0.0mm
15:59 99.7 °F /  37.6 °C 65.5 °F /  18.6 °C 29.8in /  1008.2hPa SSE 9.8mph /  15.7km/h 15mph /  24.1km/h 32.9% 0in /  0.0mm
16:04 99.9 °F /  37.7 °C 65.5 °F /  18.6 °C 29.8in /  1008.2hPa SE 8.1mph /  13km/h 12mph /  19.3km/h 33% 0in /  0.0mm
16:09 100 °F /  37.8 °C 65.5 °F /  18.6 °C 29.8in /  1008.0hPa SE 8mph /  12.8km/h 16.1mph /  25.9km/h 32.6% 0in /  0.0mm
16:14 100 °F /  37.8 °C 64.9 °F /  18.3 °C 29.8in /  1008.0hPa SE 7.4mph /  11.9km/h 16mph /  25.7km/h 32% 0in /  0.0mm
16:19 100.2 °F /  37.9 °C 64.9 °F /  18.3 °C 29.8in /  1008.0hPa ESE 7.6mph /  12.2km/h 16.8mph /  27km/h 32% 0in /  0.0mm
16:24 100 °F /  37.8 °C 64.8 °F /  18.2 °C 29.8in /  1007.8hPa ESE 8.5mph /  13.7km/h 17.5mph /  28.2km/h 31.9% 0in /  0.0mm
16:29 99.9 °F /  37.7 °C 64.2 °F /  17.9 °C 29.8in /  1007.8hPa ESE 8.8mph /  14.2km/h 18.4mph /  29.6km/h 31.4% 0in /  0.0mm
16:34 100 °F /  37.8 °C 63.7 °F /  17.6 °C 29.8in /  1007.8hPa ESE 10.7mph /  17.2km/h 18mph /  29km/h 30.6% 0in /  0.0mm
16:39 100 °F /  37.8 °C 62.8 °F /  17.1 °C 29.8in /  1007.5hPa ESE 10.6mph /  17km/h 17.5mph /  28.2km/h 29.7% 0in /  0.0mm
16:44 100 °F /  37.8 °C 62.1 °F /  16.7 °C 29.8in /  1007.4hPa SE 10mph /  16.1km/h 17.5mph /  28.2km/h 29.1% 0in /  0.0mm
16:49 100.4 °F /  38 °C 61.5 °F /  16.4 °C 29.8in /  1007.4hPa ESE 9.9mph /  15.9km/h 17mph /  27.4km/h 28.3% 0in /  0.0mm
16:54 100.2 °F /  37.9 °C 61.2 °F /  16.2 °C 29.7in /  1007.2hPa ESE 9.2mph /  14.8km/h 19.7mph /  31.7km/h 27.8% 0in /  0.0mm
16:59 100 °F /  37.8 °C 61.2 °F /  16.2 °C 29.7in /  1007.2hPa ESE 9.5mph /  15.3km/h 20mph /  32.2km/h 28% 0in /  0.0mm
17:04 100.2 °F /  37.9 °C 61.2 °F /  16.2 °C 29.7in /  1007.2hPa ESE 10.7mph /  17.2km/h 16.1mph /  25.9km/h 28% 0in /  0.0mm
17:09 100.2 °F /  37.9 °C 61.2 °F /  16.2 °C 29.7in /  1007.2hPa ESE 10.6mph /  17km/h 16.3mph /  26.2km/h 28% 0in /  0.0mm
17:14 100 °F /  37.8 °C 61.2 °F /  16.2 °C 29.7in /  1007.2hPa ESE 10mph /  16.1km/h 16.1mph /  25.9km/h 28% 0in /  0.0mm
17:19 100 °F /  37.8 °C 62.1 °F /  16.7 °C 29.7in /  1007.2hPa ESE 9.9mph /  16km/h 16mph /  25.7km/h 28.9% 0in /  0.0mm
17:24 100.2 °F /  37.9 °C 62.8 °F /  17.1 °C 29.7in /  1006.9hPa ESE 9.7mph /  15.6km/h 18.4mph /  29.6km/h 29.7% 0in /  0.0mm
17:29 100.2 °F /  37.9 °C 62.2 °F /  16.8 °C 29.7in /  1006.9hPa ESE 9.8mph /  15.7km/h 18mph /  29km/h 29% 0in /  0.0mm
17:34 100 °F /  37.8 °C 63.1 °F /  17.3 °C 29.7in /  1006.9hPa ESE 10mph /  16.1km/h 16.1mph /  25.9km/h 30.1% 0in /  0.0mm
17:39 99.9 °F /  37.7 °C 63.9 °F /  17.7 °C 29.7in /  1006.8hPa ESE 10mph /  16.1km/h 16mph /  25.7km/h 31% 0in /  0.0mm
17:44 100 °F /  37.8 °C 63.5 °F /  17.5 °C 29.7in /  1006.8hPa ESE 10mph /  16.1km/h 16mph /  25.7km/h 30.5% 0in /  0.0mm
17:49 100.2 °F /  37.9 °C 63 °F /  17.2 °C 29.7in /  1006.8hPa ESE 9.8mph /  15.7km/h 14mph /  22.5km/h 29.7% 0in /  0.0mm
17:54 100.2 °F /  37.9 °C 62.2 °F /  16.8 °C 29.7in /  1006.6hPa ESE 8.5mph /  13.7km/h 16.1mph /  25.9km/h 29% 0in /  0.0mm
17:59 100.2 °F /  37.9 °C 63.7 °F /  17.6 °C 29.7in /  1006.6hPa ESE 8.8mph /  14.1km/h 16.3mph /  26.2km/h 30.5% 0in /  0.0mm
18:04 100.2 °F /  37.9 °C 64.2 °F /  17.9 °C 29.7in /  1006.6hPa ESE 9.7mph /  15.6km/h 16mph /  25.7km/h 31.2% 0in /  0.0mm
18:09 100 °F /  37.8 °C 65.5 °F /  18.6 °C 29.7in /  1006.5hPa ESE 9.7mph /  15.6km/h 16.3mph /  26.2km/h 32.8% 0in /  0.0mm
18:14 99.7 °F /  37.6 °C 66.2 °F /  19 °C 29.7in /  1006.5hPa ESE 9.7mph /  15.6km/h 16.1mph /  25.9km/h 33.8% 0in /  0.0mm
18:19 99.3 °F /  37.4 °C 66.9 °F /  19.4 °C 29.7in /  1006.5hPa ESE 9.8mph /  15.7km/h 16.3mph /  26.2km/h 35% 0in /  0.0mm
18:24 99.1 °F /  37.3 °C 67.3 °F /  19.6 °C 29.7in /  1006.4hPa SE 10mph /  16.1km/h 16.8mph /  27km/h 35.8% 0in /  0.0mm
18:29 99.1 °F /  37.3 °C 67.5 °F /  19.7 °C 29.7in /  1006.4hPa ESE 9.9mph /  15.9km/h 17mph /  27.4km/h 36% 0in /  0.0mm
18:34 98.8 °F /  37.1 °C 67.3 °F /  19.6 °C 29.7in /  1006.4hPa ESE 9.2mph /  14.8km/h 18.5mph /  29.8km/h 36% 0in /  0.0mm
18:39 98.2 °F /  36.8 °C 66.7 °F /  19.3 °C 29.7in /  1006.3hPa ESE 9.8mph /  15.7km/h 19mph /  30.6km/h 36% 0in /  0.0mm
18:44 98.1 °F /  36.7 °C 66.6 °F /  19.2 °C 29.7in /  1006.3hPa ESE 12.5mph /  20.1km/h 18mph /  29km/h 36% 0in /  0.0mm
18:49 97.9 °F /  36.6 °C 66.4 °F /  19.1 °C 29.7in /  1006.3hPa ESE 12.1mph /  19.5km/h 17mph /  27.4km/h 36% 0in /  0.0mm
18:54 97.9 °F /  36.6 °C 66.4 °F /  19.1 °C 29.7in /  1006.1hPa ESE 10.2mph /  16.4km/h 16.1mph /  25.9km/h 36% 0in /  0.0mm
18:59 97.9 °F /  36.6 °C 66.4 °F /  19.1 °C 29.7in /  1006.1hPa ESE 10.1mph /  16.2km/h 16.1mph /  25.9km/h 36% 0in /  0.0mm
19:04 97.5 °F /  36.4 °C 66.6 °F /  19.2 °C 29.7in /  1006.1hPa ESE 9.7mph /  15.6km/h 16.3mph /  26.2km/h 36.5% 0in /  0.0mm
19:09 97.2 °F /  36.2 °C 66.6 °F /  19.2 °C 29.7in /  1006.1hPa ESE 9.9mph /  15.9km/h 16.1mph /  25.9km/h 37% 0in /  0.0mm
19:14 97.3 °F /  36.3 °C 66.7 °F /  19.3 °C 29.7in /  1006.1hPa ESE 10.7mph /  17.2km/h 16.1mph /  25.9km/h 37% 0in /  0.0mm
19:19 97.2 °F /  36.2 °C 66 °F /  18.9 °C 29.7in /  1006.1hPa ESE 10.4mph /  16.8km/h 16.1mph /  25.9km/h 36.3% 0in /  0.0mm
19:24 97.2 °F /  36.2 °C 66.2 °F /  19 °C 29.7in /  1006.0hPa ESE 9.2mph /  14.8km/h 16mph /  25.7km/h 36.5% 0in /  0.0mm
19:29 97 °F /  36.1 °C 65.8 °F /  18.8 °C 29.7in /  1006.0hPa ESE 9.2mph /  14.8km/h 15mph /  24.1km/h 36.1% 0in /  0.0mm
19:34 97 °F /  36.1 °C 65.5 °F /  18.6 °C 29.7in /  1006.2hPa ESE 9.2mph /  14.8km/h 15mph /  24.1km/h 36% 0in /  0.0mm
19:39 96.6 °F /  35.9 °C 64.9 °F /  18.3 °C 29.7in /  1006.2hPa ESE 9.1mph /  14.6km/h 14mph /  22.5km/h 35.5% 0in /  0.0mm
19:44 96.6 °F /  35.9 °C 64.8 °F /  18.2 °C 29.7in /  1006.2hPa ESE 8.5mph /  13.7km/h 17.3mph /  27.8km/h 35.4% 0in /  0.0mm
19:49 96.3 °F /  35.7 °C 64.9 °F /  18.3 °C 29.7in /  1006.2hPa ESE 8.7mph /  14km/h 17.5mph /  28.2km/h 36% 0in /  0.0mm
19:54 96.1 °F /  35.6 °C 64.8 °F /  18.2 °C 29.7in /  1006.1hPa ESE 9.7mph /  15.6km/h 17mph /  27.4km/h 36% 0in /  0.0mm
19:59 95.9 °F /  35.5 °C 64.6 °F /  18.1 °C 29.7in /  1006.1hPa ESE 9.2mph /  14.8km/h 15mph /  24.1km/h 36% 0in /  0.0mm
20:04 95.7 °F /  35.4 °C 64.4 °F /  18 °C 29.7in /  1006.2hPa ESE 7.4mph /  11.9km/h 14mph /  22.5km/h 35.9% 0in /  0.0mm
20:09 95.5 °F /  35.3 °C 64.2 °F /  17.9 °C 29.7in /  1006.2hPa ESE 7.2mph /  11.6km/h 14mph /  22.5km/h 35.9% 0in /  0.0mm
20:14 95.4 °F /  35.2 °C 63 °F /  17.2 °C 29.7in /  1006.2hPa ESE 6.4mph /  10.3km/h 10.4mph /  16.7km/h 34.5% 0in /  0.0mm
20:19 95.4 °F /  35.2 °C 62.8 °F /  17.1 °C 29.7in /  1006.4hPa Este 6.1mph /  9.8km/h 10mph /  16.1km/h 34.4% 0in /  0.0mm
20:24 95 °F /  35 °C 64.6 °F /  18.1 °C 29.7in /  1006.4hPa North 4.7mph /  7.6km/h 7mph /  11.3km/h 36.8% 0in /  0.0mm
20:29 94.3 °F /  34.6 °C 66.7 °F /  19.3 °C 29.7in /  1006.4hPa NE 4.8mph /  7.8km/h 16.3mph /  26.2km/h 40.7% 0in /  0.0mm
20:34 92.3 °F /  33.5 °C 68 °F /  20 °C 29.7in /  1006.8hPa NNE 5.4mph /  8.7km/h 16.1mph /  25.9km/h 45.1% 0in /  0.0mm
20:39 90.7 °F /  32.6 °C 68.5 °F /  20.3 °C 29.7in /  1006.8hPa NNE 6.3mph /  10.2km/h 18.4mph /  29.6km/h 48.2% 0in /  0.0mm
20:44 89.6 °F /  32 °C 69.4 °F /  20.8 °C 29.7in /  1006.8hPa NNE 10.2mph /  16.4km/h 19.2mph /  30.9km/h 51.7% 0in /  0.0mm
20:49 88.9 °F /  31.6 °C 70.2 °F /  21.2 °C 29.7in /  1006.9hPa NNE 10.4mph /  16.8km/h 20mph /  32.2km/h 54.1% 0in /  0.0mm
20:54 88.2 °F /  31.2 °C 70.7 °F /  21.5 °C 29.7in /  1006.9hPa NE 11.4mph /  18.4km/h 20mph /  32.2km/h 56.3% 0in /  0.0mm
20:59 87.6 °F /  30.9 °C 71.1 °F /  21.7 °C 29.7in /  1006.9hPa NNE 11.1mph /  17.9km/h 17mph /  27.4km/h 58% 0in /  0.0mm
21:04 87.3 °F /  30.7 °C 71.6 °F /  22 °C 29.7in /  1007.2hPa NNE 10.2mph /  16.4km/h 16mph /  25.7km/h 59.8% 0in /  0.0mm
21:09 86.7 °F /  30.4 °C 71.6 °F /  22 °C 29.7in /  1007.2hPa NE 10.1mph /  16.2km/h 16.1mph /  25.9km/h 61% 0in /  0.0mm
21:14 86.4 °F /  30.2 °C 71.8 °F /  22.1 °C 29.7in /  1007.2hPa NE 9.2mph /  14.8km/h 17.3mph /  27.8km/h 61.9% 0in /  0.0mm
21:19 86 °F /  30 °C 71.4 °F /  21.9 °C 29.7in /  1007.3hPa NE 9.4mph /  15.1km/h 17mph /  27.4km/h 62% 0in /  0.0mm
21:24 85.6 °F /  29.8 °C 71.2 °F /  21.8 °C 29.7in /  1007.3hPa NE 10.2mph /  16.4km/h 16.1mph /  25.9km/h 62% 0in /  0.0mm
21:29 85.6 °F /  29.8 °C 71.2 °F /  21.8 °C 29.7in /  1007.3hPa NE 10mph /  16.1km/h 16mph /  25.7km/h 62.3% 0in /  0.0mm
21:34 85.3 °F /  29.6 °C 71.4 °F /  21.9 °C 29.8in /  1007.5hPa NE 9.2mph /  14.8km/h 15mph /  24.1km/h 63.1% 0in /  0.0mm
21:39 84.9 °F /  29.4 °C 71.4 °F /  21.9 °C 29.8in /  1007.5hPa NE 9.1mph /  14.6km/h 14mph /  22.5km/h 64% 0in /  0.0mm
21:44 84.7 °F /  29.3 °C 71.2 °F /  21.8 °C 29.8in /  1007.5hPa NE 8.5mph /  13.7km/h 13.8mph /  22.2km/h 64% 0in /  0.0mm
21:49 84.7 °F /  29.3 °C 71.2 °F /  21.8 °C 29.8in /  1007.7hPa NE 8.3mph /  13.4km/h 15.2mph /  24.5km/h 64% 0in /  0.0mm
21:54 84.7 °F /  29.3 °C 71.4 °F /  21.9 °C 29.8in /  1007.7hPa NE 7.6mph /  12.2km/h 15mph /  24.1km/h 64.5% 0in /  0.0mm
21:59 84.6 °F /  29.2 °C 71.6 °F /  22 °C 29.8in /  1007.7hPa NNE 7.6mph /  12.2km/h 13mph /  20.9km/h 65.3% 0in /  0.0mm
22:04 84.2 °F /  29 °C 71.6 °F /  22 °C 29.8in /  1008.0hPa NNE 7.6mph /  12.2km/h 13mph /  20.9km/h 66% 0in /  0.0mm
22:09 84 °F /  28.9 °C 71.6 °F /  22 °C 29.8in /  1008.0hPa NNE 7.4mph /  11.9km/h 12mph /  19.3km/h 66.7% 0in /  0.0mm
22:14 83.8 °F /  28.8 °C 71.6 °F /  22 °C 29.8in /  1008.0hPa NNE 6.2mph /  10km/h 10.4mph /  16.7km/h 67.1% 0in /  0.0mm
22:19 83.7 °F /  28.7 °C 72 °F /  22.2 °C 29.8in /  1008.2hPa NNE 6.1mph /  9.8km/h 10.2mph /  16.4km/h 68% 0in /  0.0mm
22:24 83.5 °F /  28.6 °C 71.8 °F /  22.1 °C 29.8in /  1008.2hPa NNE 5.4mph /  8.7km/h 11.5mph /  18.5km/h 68% 0in /  0.0mm
22:29 83.3 °F /  28.5 °C 71.6 °F /  22 °C 29.8in /  1008.2hPa NE 5.7mph /  9.2km/h 12mph /  19.3km/h 68% 0in /  0.0mm
22:34 83.3 °F /  28.5 °C 71.6 °F /  22 °C 29.8in /  1008.2hPa NNE 7.4mph /  11.9km/h 12mph /  19.3km/h 68% 0in /  0.0mm
22:39 83.1 °F /  28.4 °C 71.6 °F /  22 °C 29.8in /  1008.2hPa NNE 7.1mph /  11.5km/h 10.4mph /  16.7km/h 68.1% 0in /  0.0mm
22:44 82.9 °F /  28.3 °C 71.8 °F /  22.1 °C 29.8in /  1008.2hPa NNE 5.9mph /  9.5km/h 10mph /  16.1km/h 69% 0in /  0.0mm
22:49 82.8 °F /  28.2 °C 72 °F /  22.2 °C 29.8in /  1008.4hPa NNE 5.8mph /  9.4km/h 10mph /  16.1km/h 70% 0in /  0.0mm
22:54 82.6 °F /  28.1 °C 72 °F /  22.2 °C 29.8in /  1008.4hPa NNE 5.4mph /  8.7km/h 11.2mph /  18km/h 70.2% 0in /  0.0mm
22:59 82.4 °F /  28 °C 72 °F /  22.2 °C 29.8in /  1008.4hPa NNE 5.5mph /  8.9km/h 12mph /  19.3km/h 71% 0in /  0.0mm
23:04 82 °F /  27.8 °C 72.1 °F /  22.3 °C 29.8in /  1008.5hPa NNE 5.9mph /  9.5km/h 13.8mph /  22.2km/h 71.6% 0in /  0.0mm
23:09 81.9 °F /  27.7 °C 72 °F /  22.2 °C 29.8in /  1008.5hPa NE 6.3mph /  10.2km/h 14mph /  22.5km/h 72% 0in /  0.0mm
23:14 81.9 °F /  27.7 °C 72 °F /  22.2 °C 29.8in /  1008.5hPa NE 8.5mph /  13.7km/h 14mph /  22.5km/h 72% 0in /  0.0mm
23:19 81.9 °F /  27.7 °C 72 °F /  22.2 °C 29.8in /  1008.5hPa NE 8.2mph /  13.2km/h 12mph /  19.3km/h 72% 0in /  0.0mm
23:24 81.7 °F /  27.6 °C 71.8 °F /  22.1 °C 29.8in /  1008.4hPa NNE 6.9mph /  11.1km/h 12mph /  19.3km/h 72% 0in /  0.0mm
23:29 81.7 °F /  27.6 °C 71.8 °F /  22.1 °C 29.8in /  1008.4hPa NNE 6.8mph /  10.9km/h 12mph /  19.3km/h 72% 0in /  0.0mm
23:34 81.7 °F /  27.6 °C 71.8 °F /  22.1 °C 29.8in /  1008.4hPa NE 6.2mph /  10km/h 10.4mph /  16.7km/h 72% 0in /  0.0mm
23:39 81.7 °F /  27.6 °C 71.6 °F /  22 °C 29.8in /  1008.3hPa NNE 6mph /  9.7km/h 10mph /  16.1km/h 71.3% 0in /  0.0mm
23:44 81.9 °F /  27.7 °C 71.4 °F /  21.9 °C 29.8in /  1008.3hPa NNE 5.2mph /  8.4km/h 9.2mph /  14.8km/h 71% 0in /  0.0mm
23:49 81.7 °F /  27.6 °C 71.6 °F /  22 °C 29.8in /  1008.4hPa North 5.2mph /  8.4km/h 9.2mph /  14.8km/h 71.4% 0in /  0.0mm
23:54 81.7 °F /  27.6 °C 71.8 °F /  22.1 °C 29.8in /  1008.4hPa North 5.2mph /  8.4km/h 9mph /  14.5km/h 72% 0in /  0.0mm
23:59 81.5 °F /  27.5 °C 71.4 °F /  21.9 °C 29.8in /  1008.4hPa NNE 5mph /  8km/h 9mph /  14.5km/h 71.6% 0in /  0.0mm
Murcia-Puente Tocinos, España
Compliments of Weather Underground - 3 mb

La estación de MeteoMurcia.com, publica sus datos en los siguientes proyectos:

Weather Underground PWS IMURCIAP2 Meteoclimatic www.awekas.at

W3Counter
Web Analytics